Time;durP1;ratioP1;P1;durP2;ratioP2;P2;SDS_P1;SDS_P2;PMS_P1;PMS_P2;Temp;Humidity;BMP_temperature;BMP_pressure;BME280_temperature;BME280_humidity;BME280_pressure;Samples;Min_cycle;Max_cycle;Signal;HPM_P1;HPM_P2
2021/07/12 00:01:58;;;;;;;6.10;4.05;;;23.20;60.60;;;;;;5036097;28;20056;-73
2021/07/12 00:04:23;;;;;;;6.00;4.05;;;23.20;60.60;;;;;;5039701;28;20453;-74
2021/07/12 00:06:49;;;;;;;6.20;4.00;;;23.20;60.60;;;;;;5035294;28;20432;-75
2021/07/12 00:09:14;;;;;;;5.88;3.90;;;23.20;60.60;;;;;;5036303;28;20033;-74
2021/07/12 00:11:40;;;;;;;5.63;3.72;;;23.20;60.60;;;;;;5035213;28;20321;-73
2021/07/12 00:14:06;;;;;;;6.30;3.80;;;23.20;60.60;;;;;;5034690;28;20039;-73
2021/07/12 00:16:31;;;;;;;5.78;3.90;;;23.20;60.60;;;;;;5034087;28;20021;-74
2021/07/12 00:18:57;;;;;;;6.35;3.97;;;23.20;60.60;;;;;;5034133;28;20029;-74
2021/07/12 00:21:22;;;;;;;6.07;4.20;;;23.20;60.60;;;;;;5034025;28;20041;-73
2021/07/12 00:23:49;;;;;;;6.50;4.20;;;23.20;60.70;;;;;;5034046;28;20044;-73
2021/07/12 00:26:15;;;;;;;6.90;4.70;;;23.20;60.60;;;;;;5033834;28;20025;-73
2021/07/12 00:28:41;;;;;;;5.90;3.95;;;23.20;60.70;;;;;;5033865;28;20117;-74
2021/07/12 00:31:07;;;;;;;5.63;3.70;;;23.20;60.70;;;;;;5034234;28;20049;-73
2021/07/12 00:33:33;;;;;;;5.78;3.65;;;23.10;60.70;;;;;;5033456;28;20375;-74
2021/07/12 00:35:59;;;;;;;6.57;4.20;;;23.10;60.70;;;;;;5033630;28;20108;-73
2021/07/12 00:38:25;;;;;;;5.78;3.85;;;23.20;60.70;;;;;;5033840;28;20029;-74
2021/07/12 00:40:50;;;;;;;5.75;3.65;;;23.10;60.70;;;;;;5033935;28;20037;-73
2021/07/12 00:43:16;;;;;;;5.60;3.60;;;23.20;60.70;;;;;;5033685;28;20021;-73
2021/07/12 00:45:42;;;;;;;6.30;4.15;;;23.10;60.70;;;;;;5033436;28;20029;-74
2021/07/12 00:48:07;;;;;;;5.15;3.47;;;23.10;60.70;;;;;;5033521;28;20506;-73
2021/07/12 00:50:39;;;;;;;5.90;3.60;;;23.10;60.70;;;;;;5033677;28;20048;-73
2021/07/12 00:53:06;;;;;;;6.00;3.90;;;23.10;60.70;;;;;;5033686;28;20030;-74
2021/07/12 00:55:38;;;;;;;5.63;3.35;;;23.10;60.70;;;;;;5033514;28;20033;-73
2021/07/12 00:58:10;;;;;;;5.32;3.67;;;23.10;60.70;;;;;;5033595;28;20025;-74
2021/07/12 01:00:36;;;;;;;5.85;3.75;;;23.10;60.80;;;;;;5033066;28;20052;-74
2021/07/12 01:03:03;;;;;;;6.55;3.60;;;23.10;60.70;;;;;;5033126;28;20033;-73
2021/07/12 01:05:31;;;;;;;7.68;3.80;;;23.10;60.70;;;;;;5048356;28;20026;-73
2021/07/12 01:08:00;;;;;;;6.50;4.03;;;23.10;60.70;;;;;;5033149;28;20032;-74
2021/07/12 01:10:27;;;;;;;6.28;3.60;;;23.10;60.70;;;;;;5033027;28;20108;-74
2021/07/12 01:13:01;;;;;;;4.57;3.15;;;23.10;60.80;;;;;;5032928;28;20028;-74
2021/07/12 01:15:48;;;;;;;6.03;3.88;;;23.10;60.70;;;;;;5033023;28;20108;-73
2021/07/12 01:18:30;;;;;;;5.75;4.00;;;23.00;60.70;;;;;;5032715;28;20037;-74
2021/07/12 01:21:40;;;;;;;5.70;3.70;;;23.00;60.70;;;;;;5033036;28;20428;-74
2021/07/12 01:24:28;;;;;;;5.30;3.63;;;23.00;60.70;;;;;;5036658;28;20420;-74
2021/07/12 01:27:24;;;;;;;5.70;3.70;;;23.00;60.70;;;;;;5037316;28;20389;-73
2021/07/12 01:30:07;;;;;;;5.95;3.60;;;23.00;60.80;;;;;;5037003;28;20457;-74
2021/07/12 01:32:55;;;;;;;5.97;3.95;;;23.00;60.80;;;;;;5043464;28;20041;-73
2021/07/12 01:35:33;;;;;;;5.72;3.60;;;23.00;60.80;;;;;;5037177;28;20037;-74
2021/07/12 01:38:25;;;;;;;6.30;3.63;;;23.00;60.80;;;;;;5037257;28;20104;-73
2021/07/12 01:41:01;;;;;;;5.35;3.47;;;23.00;60.80;;;;;;5037369;28;20037;-73
2021/07/12 01:43:36;;;;;;;6.20;3.83;;;23.00;60.80;;;;;;5037431;28;20123;-73
2021/07/12 01:46:13;;;;;;;5.88;3.78;;;23.00;60.80;;;;;;5037156;28;20022;-74
2021/07/12 01:49:12;;;;;;;5.28;3.70;;;23.00;60.80;;;;;;5036822;28;20048;-73
2021/07/12 01:52:08;;;;;;;5.82;3.72;;;23.00;60.90;;;;;;5037188;28;20029;-73
2021/07/12 01:54:51;;;;;;;5.15;3.60;;;23.00;60.90;;;;;;5037162;28;20021;-73
2021/07/12 01:57:29;;;;;;;5.72;3.70;;;22.90;60.90;;;;;;5036634;28;20037;-73
2021/07/12 01:59:58;;;;;;;6.28;4.00;;;23.00;60.90;;;;;;5036685;28;20088;-73
2021/07/12 02:02:28;;;;;;;5.95;3.78;;;23.00;61.00;;;;;;5036632;28;20100;-73
2021/07/12 02:04:56;;;;;;;6.22;4.07;;;22.90;61.00;;;;;;5036468;28;20018;-73
2021/07/12 02:07:23;;;;;;;6.25;4.10;;;22.90;61.00;;;;;;5036308;28;20025;-73
2021/07/12 02:09:51;;;;;;;5.85;3.90;;;23.00;61.00;;;;;;5036462;28;20494;-73
2021/07/12 02:12:18;;;;;;;5.80;3.72;;;22.90;61.00;;;;;;5036363;28;20033;-73
2021/07/12 02:14:44;;;;;;;6.15;3.78;;;22.90;61.00;;;;;;5036318;28;20017;-73
2021/07/12 02:17:11;;;;;;;6.72;4.05;;;22.90;61.10;;;;;;5036394;28;20041;-73
2021/07/12 02:19:38;;;;;;;5.55;3.40;;;22.90;61.10;;;;;;5036509;28;20033;-74
2021/07/12 02:22:04;;;;;;;6.32;3.72;;;22.90;61.10;;;;;;5035998;28;20485;-73
2021/07/12 02:24:32;;;;;;;6.15;3.60;;;22.90;61.20;;;;;;5036291;28;20149;-73
2021/07/12 02:26:58;;;;;;;6.30;3.70;;;22.90;61.30;;;;;;5035998;28;20025;-73
2021/07/12 02:29:26;;;;;;;5.70;3.78;;;22.90;61.20;;;;;;5036097;28;20033;-74
2021/07/12 02:31:52;;;;;;;5.32;3.30;;;22.90;61.20;;;;;;5035677;28;20477;-73
2021/07/12 02:34:19;;;;;;;6.22;3.88;;;22.80;61.20;;;;;;5035431;28;20041;-73
2021/07/12 02:36:48;;;;;;;5.78;3.83;;;22.90;61.30;;;;;;5035910;28;20021;-73
2021/07/12 02:39:14;;;;;;;5.20;3.28;;;22.80;61.30;;;;;;5035763;28;20128;-73
2021/07/12 02:41:41;;;;;;;5.60;3.45;;;22.80;61.30;;;;;;5035925;28;20116;-73
2021/07/12 02:44:12;;;;;;;6.43;3.70;;;22.80;61.30;;;;;;5035730;28;20033;-74
2021/07/12 02:46:39;;;;;;;5.38;3.75;;;22.80;61.30;;;;;;5035911;28;20067;-73
2021/07/12 02:49:05;;;;;;;5.13;3.33;;;22.80;61.30;;;;;;5036688;28;20045;-73
2021/07/12 02:51:46;;;;;;;6.35;3.95;;;22.80;61.30;;;;;;5038513;28;20473;-73
2021/07/12 02:54:18;;;;;;;6.00;4.30;;;22.80;61.40;;;;;;5035648;28;20018;-73
2021/07/12 02:56:44;;;;;;;5.57;3.63;;;22.80;61.40;;;;;;5035802;28;20018;-74
2021/07/12 02:59:10;;;;;;;6.07;3.90;;;22.80;61.40;;;;;;5035360;28;20028;-73
2021/07/12 03:01:35;;;;;;;6.10;3.95;;;22.70;61.40;;;;;;5035291;28;20041;-74
2021/07/12 03:04:01;;;;;;;5.65;3.70;;;22.80;61.50;;;;;;5035757;28;20048;-73
2021/07/12 03:06:31;;;;;;;5.97;3.85;;;22.80;61.40;;;;;;5035548;28;20022;-73
2021/07/12 03:09:04;;;;;;;6.88;3.75;;;22.70;61.50;;;;;;5035389;28;20022;-73
2021/07/12 03:11:37;;;;;;;5.10;3.50;;;22.80;61.50;;;;;;5035081;28;20029;-73
2021/07/12 03:14:25;;;;;;;6.05;3.60;;;22.70;61.40;;;;;;5035346;28;20511;-74
2021/07/12 03:16:51;;;;;;;6.03;3.88;;;22.70;61.50;;;;;;5035460;28;20063;-73
2021/07/12 03:19:24;;;;;;;6.03;3.95;;;22.80;61.50;;;;;;5035016;28;20036;-73
2021/07/12 03:21:53;;;;;;;5.43;3.25;;;22.70;61.40;;;;;;5034833;28;20144;-73
2021/07/12 03:24:20;;;;;;;6.28;3.75;;;22.70;61.50;;;;;;5034986;28;20053;-73
2021/07/12 03:26:51;;;;;;;5.50;3.40;;;22.70;61.50;;;;;;5034817;28;20026;-72
2021/07/12 03:29:17;;;;;;;6.47;3.70;;;22.80;61.50;;;;;;5035084;28;20083;-73
2021/07/12 03:31:44;;;;;;;5.68;3.65;;;22.80;61.50;;;;;;5034946;28;20389;-74
2021/07/12 03:34:12;;;;;;;5.45;3.55;;;22.80;61.40;;;;;;5034704;28;20049;-73
2021/07/12 03:36:38;;;;;;;5.40;3.28;;;22.70;61.40;;;;;;5034964;28;20045;-73
2021/07/12 03:39:05;;;;;;;6.57;3.75;;;22.70;61.50;;;;;;5034764;28;20034;-74
2021/07/12 03:41:31;;;;;;;5.22;3.40;;;22.70;61.40;;;;;;5034716;28;20033;-73
2021/07/12 03:43:58;;;;;;;5.85;3.88;;;22.70;61.50;;;;;;5034574;28;20389;-73
2021/07/12 03:46:24;;;;;;;5.30;3.22;;;22.70;61.50;;;;;;5033998;28;20128;-73
2021/07/12 03:48:49;;;;;;;5.45;3.42;;;22.70;61.60;;;;;;5034526;28;20489;-74
2021/07/12 03:51:20;;;;;;;5.85;3.55;;;22.70;61.60;;;;;;5034757;28;20473;-74
2021/07/12 03:53:46;;;;;;;5.63;3.80;;;22.70;61.50;;;;;;5034506;28;20037;-74
2021/07/12 03:56:12;;;;;;;6.00;4.07;;;22.70;61.50;;;;;;5034152;28;20033;-74
2021/07/12 03:58:37;;;;;;;6.03;3.30;;;22.70;61.50;;;;;;5034729;28;20026;-74
2021/07/12 04:01:04;;;;;;;6.25;3.90;;;22.70;61.50;;;;;;5034366;28;20397;-74
2021/07/12 04:03:29;;;;;;;5.60;3.33;;;22.70;61.50;;;;;;5034218;28;20075;-74
2021/07/12 04:05:55;;;;;;;5.28;3.42;;;22.70;61.50;;;;;;5034390;28;20026;-74
2021/07/12 04:08:21;;;;;;;5.53;3.55;;;22.70;61.50;;;;;;5034546;28;20025;-74
2021/07/12 04:10:47;;;;;;;5.40;3.38;;;22.70;61.50;;;;;;5034046;28;20036;-75
2021/07/12 04:13:13;;;;;;;5.63;3.45;;;22.70;61.50;;;;;;5034050;28;20021;-74
2021/07/12 04:15:40;;;;;;;5.57;3.60;;;22.70;61.60;;;;;;5034198;28;20104;-74
2021/07/12 04:18:06;;;;;;;6.15;3.78;;;22.60;61.50;;;;;;5034311;28;20029;-75
2021/07/12 04:20:32;;;;;;;6.15;3.85;;;22.60;61.60;;;;;;5033882;28;20424;-72
2021/07/12 04:22:59;;;;;;;5.10;3.30;;;22.60;61.70;;;;;;5034031;28;20033;-74
2021/07/12 04:25:26;;;;;;;6.10;3.80;;;22.60;61.50;;;;;;5033768;28;20026;-74
2021/07/12 04:27:51;;;;;;;5.82;3.88;;;22.60;61.50;;;;;;5033919;28;20025;-72
2021/07/12 04:30:18;;;;;;;6.88;4.03;;;22.60;61.50;;;;;;5033899;28;20414;-74
2021/07/12 04:32:43;;;;;;;5.40;3.33;;;22.70;61.50;;;;;;5033728;28;20090;-74
2021/07/12 04:35:12;;;;;;;5.63;3.75;;;22.70;61.60;;;;;;5033890;28;20029;-74
2021/07/12 04:37:37;;;;;;;5.45;3.53;;;22.70;61.60;;;;;;5033984;28;20029;-74
2021/07/12 04:40:03;;;;;;;5.70;3.67;;;22.70;61.60;;;;;;5033577;28;20048;-74
2021/07/12 04:42:30;;;;;;;6.25;3.75;;;22.60;61.60;;;;;;5034334;28;20084;-74
2021/07/12 04:44:56;;;;;;;5.60;3.50;;;22.70;61.70;;;;;;5033994;28;20101;-74
2021/07/12 04:47:21;;;;;;;5.65;3.35;;;22.60;61.50;;;;;;5033836;28;20060;-74
2021/07/12 04:49:47;;;;;;;4.82;3.40;;;22.60;61.60;;;;;;5033626;28;20025;-74
2021/07/12 04:52:12;;;;;;;6.07;3.60;;;22.60;61.60;;;;;;5033583;28;20025;-74
2021/07/12 04:54:38;;;;;;;5.80;3.67;;;22.60;61.70;;;;;;5040746;28;20034;-75
2021/07/12 04:57:04;;;;;;;5.03;3.42;;;22.60;61.60;;;;;;5047193;28;20029;-74
2021/07/12 04:59:30;;;;;;;5.35;3.65;;;22.60;61.60;;;;;;5051355;28;20036;-75
2021/07/12 05:01:56;;;;;;;5.85;3.88;;;22.60;61.60;;;;;;5046727;28;20248;-76
2021/07/12 05:04:22;;;;;;;5.90;3.75;;;22.60;61.60;;;;;;5044045;28;20017;-75
2021/07/12 05:06:47;;;;;;;4.78;3.05;;;22.60;61.60;;;;;;5046633;28;20041;-74
2021/07/12 05:09:13;;;;;;;5.20;3.45;;;22.60;61.60;;;;;;5043160;28;20036;-74
2021/07/12 05:11:39;;;;;;;5.25;3.33;;;22.60;61.50;;;;;;5044542;28;20465;-74
2021/07/12 05:14:05;;;;;;;5.55;3.65;;;22.60;61.50;;;;;;5044135;28;20029;-74
2021/07/12 05:16:33;;;;;;;5.95;3.63;;;22.60;61.50;;;;;;5035638;28;20164;-74
2021/07/12 05:18:59;;;;;;;5.70;3.38;;;22.60;61.50;;;;;;5033438;28;20026;-75
2021/07/12 05:21:25;;;;;;;5.03;3.45;;;22.60;61.50;;;;;;5033045;28;20033;-74
2021/07/12 05:23:51;;;;;;;6.10;3.70;;;22.60;61.50;;;;;;5033181;28;20045;-74
2021/07/12 05:26:16;;;;;;;5.78;3.78;;;22.60;61.50;;;;;;5033108;28;20056;-74
2021/07/12 05:28:42;;;;;;;5.35;3.30;;;22.60;61.50;;;;;;5033273;28;20414;-74
2021/07/12 05:31:08;;;;;;;5.57;3.42;;;22.60;61.50;;;;;;5033294;28;20028;-75
2021/07/12 05:33:34;;;;;;;5.47;3.63;;;22.60;61.50;;;;;;5032792;28;20042;-74
2021/07/12 05:36:00;;;;;;;6.55;4.03;;;22.60;61.40;;;;;;5032811;28;20021;-75
2021/07/12 05:38:26;;;;;;;5.97;3.83;;;22.60;61.40;;;;;;5032664;28;20397;-74
2021/07/12 05:40:51;;;;;;;5.40;3.50;;;22.60;61.40;;;;;;5032982;28;20033;-74
2021/07/12 05:43:17;;;;;;;5.38;3.70;;;22.60;61.40;;;;;;5033104;28;20025;-74
2021/07/12 05:45:42;;;;;;;5.55;3.28;;;22.60;61.50;;;;;;5032855;28;20033;-75
2021/07/12 05:48:09;;;;;;;5.95;3.22;;;22.60;61.40;;;;;;5032955;28;20030;-74
2021/07/12 05:50:35;;;;;;;5.75;3.33;;;22.60;61.40;;;;;;5028042;28;20113;-75
2021/07/12 05:53:00;;;;;;;6.05;3.95;;;22.60;61.50;;;;;;5027430;28;20105;-75
2021/07/12 05:55:26;;;;;;;6.53;4.50;;;22.60;61.80;;;;;;5023304;28;20128;-75
2021/07/12 05:57:52;;;;;;;7.63;4.90;;;22.60;62.00;;;;;;5016492;28;20584;-75
2021/07/12 06:00:17;;;;;;;8.85;6.07;;;22.70;62.50;;;;;;5025581;28;20025;-75
2021/07/12 06:02:43;;;;;;;9.63;5.57;;;22.60;62.30;;;;;;5032212;28;20030;-75
2021/07/12 06:05:10;;;;;;;9.90;5.22;;;22.60;62.30;;;;;;5032050;28;20060;-74
2021/07/12 06:07:36;;;;;;;10.73;5.25;;;22.60;62.40;;;;;;5031659;28;20075;-75
2021/07/12 06:10:04;;;;;;;7.88;4.95;;;22.60;62.40;;;;;;5022128;28;20022;-75
2021/07/12 06:12:30;;;;;;;9.27;5.68;;;22.60;62.20;;;;;;5016388;28;20025;-75
2021/07/12 06:14:55;;;;;;;7.68;5.10;;;22.60;62.20;;;;;;5018177;28;20049;-75
2021/07/12 06:17:21;;;;;;;9.05;6.50;;;22.60;62.40;;;;;;5035290;28;20030;-75
2021/07/12 06:19:47;;;;;;;8.00;5.65;;;22.60;62.40;;;;;;5036189;28;20026;-75
2021/07/12 06:22:12;;;;;;;7.60;5.50;;;22.60;62.40;;;;;;5048863;28;20037;-76
2021/07/12 06:24:38;;;;;;;7.93;5.70;;;22.60;62.40;;;;;;5055135;28;20408;-76
2021/07/12 06:27:03;;;;;;;8.07;5.80;;;22.60;62.70;;;;;;5055332;28;20358;-75
2021/07/12 06:29:29;;;;;;;8.40;6.13;;;22.60;63.00;;;;;;5055036;28;20031;-76
2021/07/12 06:31:55;;;;;;;7.28;4.82;;;22.60;63.20;;;;;;5048680;28;20062;-72
2021/07/12 06:34:22;;;;;;;7.85;4.97;;;22.60;62.40;;;;;;5034951;28;20043;-75
2021/07/12 06:36:47;;;;;;;8.02;5.45;;;22.60;62.60;;;;;;5033775;28;20022;-75
2021/07/12 06:39:13;;;;;;;8.52;5.78;;;22.60;62.70;;;;;;5034956;28;20474;-76
2021/07/12 06:41:39;;;;;;;8.95;5.47;;;22.60;62.80;;;;;;5034853;28;20038;-76
2021/07/12 06:44:05;;;;;;;9.68;6.07;;;22.60;62.80;;;;;;5034529;28;20432;-75
2021/07/12 06:46:30;;;;;;;9.50;6.10;;;22.60;63.00;;;;;;5022164;28;20076;-75
2021/07/12 06:48:56;;;;;;;8.93;5.93;;;22.70;63.30;;;;;;5015406;28;20109;-76
2021/07/12 06:51:22;;;;;;;8.95;6.15;;;22.60;63.20;;;;;;5014833;28;20042;-75
2021/07/12 06:53:47;;;;;;;9.45;6.13;;;22.60;63.30;;;;;;5015203;28;20057;-75
2021/07/12 06:56:14;;;;;;;8.85;5.22;;;22.70;63.30;;;;;;5015491;28;20026;-75
2021/07/12 06:58:40;;;;;;;9.10;5.43;;;22.70;63.20;;;;;;5054242;28;20043;-75
2021/07/12 07:01:06;;;;;;;7.43;5.22;;;22.70;63.10;;;;;;5054681;28;20040;-75
2021/07/12 07:03:31;;;;;;;8.70;5.35;;;22.70;63.50;;;;;;5054243;28;20025;-75
2021/07/12 07:05:57;;;;;;;8.60;5.50;;;22.70;63.00;;;;;;5054466;28;20116;-75
2021/07/12 07:08:22;;;;;;;10.68;5.38;;;22.70;63.00;;;;;;5054292;28;20032;-75
2021/07/12 07:10:49;;;;;;;8.43;4.88;;;22.70;62.80;;;;;;5054304;28;20058;-73
2021/07/12 07:13:14;;;;;;;8.93;5.43;;;22.70;62.90;;;;;;5054102;28;20108;-74
2021/07/12 07:15:40;;;;;;;9.23;4.93;;;22.70;62.90;;;;;;5053929;28;20163;-74
2021/07/12 07:18:06;;;;;;;16.05;5.22;;;22.70;62.90;;;;;;5054125;28;20036;-75
2021/07/12 07:20:31;;;;;;;7.93;4.97;;;22.70;62.80;;;;;;5052720;28;20025;-74
2021/07/12 07:22:57;;;;;;;8.35;5.53;;;22.70;62.70;;;;;;5054037;28;20040;-75
2021/07/12 07:25:23;;;;;;;10.85;5.50;;;22.70;62.90;;;;;;5054337;28;20376;-75
2021/07/12 07:27:48;;;;;;;8.13;5.28;;;22.80;63.00;;;;;;5053270;28;20040;-74
2021/07/12 07:30:15;;;;;;;7.85;5.03;;;22.70;62.90;;;;;;5053732;28;20028;-75
2021/07/12 07:32:41;;;;;;;7.80;4.82;;;22.80;62.80;;;;;;5053508;28;20068;-75
2021/07/12 07:35:07;;;;;;;8.77;5.47;;;22.80;62.80;;;;;;5053519;28;20067;-74
2021/07/12 07:37:33;;;;;;;8.45;5.47;;;22.80;62.70;;;;;;5053557;28;20033;-75
2021/07/12 07:39:59;;;;;;;8.60;5.20;;;22.80;62.80;;;;;;5053640;28;20031;-75
2021/07/12 07:42:25;;;;;;;7.65;5.07;;;22.80;62.80;;;;;;5053325;28;20134;-75
2021/07/12 07:44:51;;;;;;;8.52;5.18;;;22.80;62.70;;;;;;5054298;28;20041;-74
2021/07/12 07:47:18;;;;;;;7.85;5.38;;;22.80;62.80;;;;;;5016127;28;20032;-75
2021/07/12 07:49:43;;;;;;;10.70;5.35;;;22.90;62.90;;;;;;5014600;28;20026;-74
2021/07/12 07:52:09;;;;;;;7.78;4.90;;;22.90;62.90;;;;;;5012770;28;20503;-75
2021/07/12 07:54:35;;;;;;;12.93;5.20;;;22.90;62.80;;;;;;5013568;28;20053;-75
2021/07/12 07:57:00;;;;;;;6.97;5.00;;;22.90;62.80;;;;;;5014065;28;20425;-75
2021/07/12 07:59:26;;;;;;;7.85;4.82;;;22.90;62.80;;;;;;5014045;28;20045;-75
2021/07/12 08:01:52;;;;;;;7.60;4.95;;;22.90;62.80;;;;;;5030886;28;20095;-75
2021/07/12 08:04:17;;;;;;;7.97;4.78;;;22.90;62.80;;;;;;5053522;28;20036;-74
2021/07/12 08:06:43;;;;;;;9.68;5.32;;;22.90;62.90;;;;;;5053238;28;20033;-74
2021/07/12 08:09:09;;;;;;;8.90;5.03;;;22.90;63.00;;;;;;5053359;28;20469;-74
2021/07/12 08:11:34;;;;;;;8.43;4.80;;;23.00;62.80;;;;;;5053045;28;20472;-74
2021/07/12 08:14:00;;;;;;;7.88;4.90;;;23.00;62.80;;;;;;5053217;28;20032;-74
2021/07/12 08:16:25;;;;;;;7.68;4.60;;;23.00;62.80;;;;;;5052382;28;20094;-73
2021/07/12 08:18:51;;;;;;;8.15;4.85;;;23.00;62.70;;;;;;5051780;28;20021;-73
2021/07/12 08:21:17;;;;;;;8.18;5.07;;;23.00;62.70;;;;;;5052014;28;20048;-73
2021/07/12 08:23:43;;;;;;;7.07;4.90;;;23.00;62.60;;;;;;5051993;28;20104;-75
2021/07/12 08:26:11;;;;;;;6.80;4.15;;;23.00;62.50;;;;;;5051987;28;20020;-73
2021/07/12 08:28:37;;;;;;;7.05;4.60;;;23.10;62.50;;;;;;5051826;28;20029;-73
2021/07/12 08:31:03;;;;;;;7.57;4.97;;;23.10;62.40;;;;;;5052337;28;20028;-73
2021/07/12 08:33:29;;;;;;;6.35;4.22;;;23.10;62.40;;;;;;5052163;28;20053;-73
2021/07/12 08:35:55;;;;;;;8.90;4.65;;;23.00;62.40;;;;;;5052487;28;20025;-73
2021/07/12 08:38:21;;;;;;;7.55;4.93;;;23.10;62.40;;;;;;5052985;28;20032;-73
2021/07/12 08:40:47;;;;;;;7.30;4.55;;;23.10;62.30;;;;;;5053230;28;20131;-74
2021/07/12 08:43:16;;;;;;;6.13;3.90;;;23.10;62.30;;;;;;5053188;28;20089;-75
2021/07/12 08:45:42;;;;;;;8.85;4.70;;;23.10;62.30;;;;;;5052946;28;20501;-75
2021/07/12 08:48:08;;;;;;;7.15;4.40;;;23.10;62.20;;;;;;5053020;28;20059;-72
2021/07/12 08:50:33;;;;;;;6.20;4.28;;;23.10;62.20;;;;;;5051677;28;20021;-73
2021/07/12 08:52:59;;;;;;;7.88;4.80;;;23.10;62.20;;;;;;5052780;28;20432;-73
2021/07/12 08:55:25;;;;;;;7.43;3.92;;;23.10;62.20;;;;;;5052895;28;20029;-73
2021/07/12 08:57:55;;;;;;;6.55;4.53;;;23.10;62.10;;;;;;5053044;28;20043;-73
2021/07/12 09:00:36;;;;;;;7.15;4.55;;;23.10;62.10;;;;;;5052864;28;20036;-73
2021/07/12 09:03:26;;;;;;;6.88;4.30;;;23.20;62.10;;;;;;5053192;28;20103;-73
2021/07/12 09:06:06;;;;;;;7.07;4.50;;;23.20;62.10;;;;;;5053129;28;20358;-73
2021/07/12 09:08:53;;;;;;;7.03;4.13;;;23.20;62.00;;;;;;5051561;28;20392;-72
2021/07/12 09:11:22;;;;;;;6.63;4.15;;;23.20;61.90;;;;;;5053048;28;20100;-72
2021/07/12 09:13:51;;;;;;;6.25;4.15;;;23.20;61.90;;;;;;5052941;28;20029;-73
2021/07/12 09:16:34;;;;;;;5.25;3.42;;;23.20;61.90;;;;;;5031627;28;20393;-73
2021/07/12 09:19:20;;;;;;;6.78;4.40;;;23.20;61.90;;;;;;5012877;28;20389;-73
2021/07/12 09:22:12;;;;;;;6.80;4.20;;;23.20;61.90;;;;;;5013914;28;20045;-73
2021/07/12 09:24:54;;;;;;;7.07;4.43;;;23.20;61.80;;;;;;5012595;28;20026;-73
2021/07/12 09:27:27;;;;;;;7.05;4.43;;;23.20;61.80;;;;;;5011950;28;20473;-73
2021/07/12 09:30:09;;;;;;;8.43;4.50;;;23.30;61.80;;;;;;5013733;28;20026;-73
2021/07/12 09:32:38;;;;;;;6.50;4.18;;;23.20;61.80;;;;;;5013405;28;20045;-73
2021/07/12 09:35:07;;;;;;;8.80;4.40;;;23.20;61.80;;;;;;5013646;28;20041;-73
2021/07/12 09:37:34;;;;;;;5.95;4.00;;;23.30;61.80;;;;;;5013396;28;20438;-74
2021/07/12 09:40:05;;;;;;;6.60;3.80;;;23.30;61.70;;;;;;5013073;28;20026;-73
2021/07/12 09:42:31;;;;;;;6.63;3.95;;;23.30;61.70;;;;;;5013995;28;20057;-73
2021/07/12 09:44:59;;;;;;;5.93;4.05;;;23.30;61.70;;;;;;5017060;28;20473;-73
2021/07/12 09:47:28;;;;;;;6.18;4.00;;;23.30;61.70;;;;;;5017107;28;20022;-74
2021/07/12 09:50:01;;;;;;;6.40;3.80;;;23.30;61.70;;;;;;5017578;28;20068;-73
2021/07/12 09:52:26;;;;;;;6.30;4.25;;;23.30;61.60;;;;;;5023708;28;20457;-73
2021/07/12 09:54:52;;;;;;;5.00;3.33;;;23.30;61.60;;;;;;5018846;28;20026;-73
2021/07/12 09:57:23;;;;;;;7.57;3.90;;;23.30;61.60;;;;;;5019510;28;20038;-73
2021/07/12 09:59:54;;;;;;;5.25;3.28;;;23.30;61.60;;;;;;5024167;28;20026;-74
2021/07/12 10:02:25;;;;;;;6.80;4.32;;;23.30;61.60;;;;;;5020041;28;20324;-74
2021/07/12 10:04:55;;;;;;;5.57;3.90;;;23.40;61.50;;;;;;5018371;28;20101;-74
2021/07/12 10:07:24;;;;;;;6.35;4.07;;;23.40;61.50;;;;;;5016965;28;20088;-73
2021/07/12 10:09:50;;;;;;;7.15;4.00;;;23.40;61.50;;;;;;5016652;28;20018;-73
2021/07/12 10:12:16;;;;;;;6.07;4.05;;;23.40;61.50;;;;;;5016411;28;20076;-74
2021/07/12 10:14:41;;;;;;;5.53;3.58;;;23.40;61.50;;;;;;5015876;28;20417;-73
2021/07/12 10:17:09;;;;;;;6.22;4.03;;;23.40;61.40;;;;;;5016913;28;20030;-74
2021/07/12 10:19:39;;;;;;;7.47;4.18;;;23.40;61.50;;;;;;5026790;28;20022;-74
2021/07/12 10:22:06;;;;;;;6.03;3.83;;;23.40;61.40;;;;;;5034672;28;20032;-72
2021/07/12 10:24:44;;;;;;;5.97;4.05;;;23.50;61.30;;;;;;5037493;28;20022;-73
2021/07/12 10:27:27;;;;;;;6.53;3.92;;;23.50;61.20;;;;;;5035344;28;20582;-72
2021/07/12 10:29:55;;;;;;;7.35;3.95;;;23.50;61.10;;;;;;5034371;28;20029;-74
2021/07/12 10:32:25;;;;;;;5.50;3.60;;;23.50;61.10;;;;;;5035782;28;20029;-74
2021/07/12 10:34:56;;;;;;;6.20;3.90;;;23.50;61.10;;;;;;5032754;28;20095;-74
2021/07/12 10:37:29;;;;;;;5.20;3.35;;;23.50;61.00;;;;;;5033505;28;20025;-75
2021/07/12 10:40:08;;;;;;;6.18;3.80;;;23.60;61.00;;;;;;5037093;28;20033;-74
2021/07/12 10:42:43;;;;;;;6.40;3.92;;;23.50;61.00;;;;;;5032635;28;20083;-73
2021/07/12 10:45:20;;;;;;;6.28;3.88;;;23.60;61.00;;;;;;5024638;28;20100;-73
2021/07/12 10:47:47;;;;;;;7.13;3.38;;;23.60;61.00;;;;;;5035107;28;20028;-74
2021/07/12 10:50:41;;;;;;;6.07;3.50;;;23.60;60.90;;;;;;5043266;28;20025;-72
2021/07/12 10:53:15;;;;;;;5.20;3.63;;;23.70;60.80;;;;;;5034820;28;20031;-73
2021/07/12 10:55:44;;;;;;;5.22;3.55;;;23.70;60.80;;;;;;5033616;28;20109;-72
2021/07/12 10:58:21;;;;;;;5.63;3.72;;;23.70;60.80;;;;;;5034284;28;20036;-73
2021/07/12 11:00:49;;;;;;;5.93;3.72;;;23.80;60.90;;;;;;5035109;28;20052;-75
2021/07/12 11:03:41;;;;;;;5.90;3.70;;;23.80;60.70;;;;;;5033220;28;20029;-74
2021/07/12 11:06:07;;;;;;;6.18;3.80;;;23.80;60.90;;;;;;5031726;28;20041;-72
2021/07/12 11:08:46;;;;;;;6.03;3.70;;;23.80;61.00;;;;;;5032187;28;20041;-74
2021/07/12 11:11:36;;;;;;;5.63;3.67;;;23.80;61.00;;;;;;5034228;28;20029;-71
2021/07/12 11:14:07;;;;;;;6.15;4.07;;;23.80;61.10;;;;;;5029574;28;20401;-70
2021/07/12 11:16:47;;;;;;;6.35;3.67;;;23.90;61.30;;;;;;5030898;28;20493;-70
2021/07/12 11:19:31;;;;;;;6.20;3.75;;;23.80;61.30;;;;;;5034836;28;20029;-72
2021/07/12 11:22:15;;;;;;;5.35;3.60;;;23.90;61.30;;;;;;5034561;28;20033;-73
2021/07/12 11:25:16;;;;;;;6.20;3.97;;;23.90;61.30;;;;;;5034562;28;20453;-74
2021/07/12 11:27:43;;;;;;;5.78;3.83;;;23.90;61.50;;;;;;5012932;28;20065;-74
2021/07/12 11:30:44;;;;;;;5.55;3.53;;;23.90;61.50;;;;;;5015086;28;20030;-76
2021/07/12 11:33:27;;;;;;;6.00;3.40;;;23.90;61.50;;;;;;4994796;28;20065;-75
2021/07/12 11:35:56;;;;;;;9.27;3.63;;;23.90;61.60;;;;;;5014705;28;20038;-73
2021/07/12 11:38:21;;;;;;;7.00;4.18;;;24.00;61.60;;;;;;5035164;28;20440;-74
2021/07/12 11:40:52;;;;;;;5.68;3.50;;;24.00;61.60;;;;;;5035500;28;20033;-75
2021/07/12 11:43:27;;;;;;;5.88;3.60;;;24.00;61.50;;;;;;5033665;28;20112;-73
2021/07/12 11:46:00;;;;;;;6.40;3.65;;;24.00;61.60;;;;;;5033763;28;20053;-75
2021/07/12 11:48:25;;;;;;;5.60;3.60;;;24.00;61.60;;;;;;5035069;28;20029;-75
2021/07/12 11:50:51;;;;;;;5.70;3.55;;;24.10;61.50;;;;;;5033833;28;20113;-75
2021/07/12 11:53:17;;;;;;;5.50;3.60;;;24.20;61.30;;;;;;5033670;28;20093;-75
2021/07/12 11:55:43;;;;;;;6.22;3.78;;;24.20;61.20;;;;;;5033500;28;20083;-75
2021/07/12 11:58:08;;;;;;;5.47;3.65;;;24.20;61.30;;;;;;5034001;28;20171;-75
2021/07/12 12:00:37;;;;;;;6.10;3.60;;;24.30;61.10;;;;;;5032898;28;20026;-74
2021/07/12 12:03:11;;;;;;;6.05;3.53;;;24.20;61.10;;;;;;5016640;28;20025;-73
2021/07/12 12:05:39;;;;;;;7.60;3.70;;;24.30;61.00;;;;;;5023984;28;20057;-76
2021/07/12 12:08:06;;;;;;;7.85;3.70;;;24.30;61.10;;;;;;5014495;28;20087;-74
2021/07/12 12:10:38;;;;;;;6.43;3.38;;;24.30;61.00;;;;;;5025353;28;20033;-74
2021/07/12 12:13:21;;;;;;;6.10;3.78;;;24.40;61.00;;;;;;5033497;28;20022;-74
2021/07/12 12:15:48;;;;;;;7.80;4.00;;;24.40;61.00;;;;;;5031953;28;20034;-73
2021/07/12 12:18:19;;;;;;;7.47;3.92;;;24.40;61.00;;;;;;5027409;28;20045;-74
2021/07/12 12:20:50;;;;;;;5.70;3.78;;;24.40;61.00;;;;;;5030492;28;20052;-75
2021/07/12 12:23:27;;;;;;;7.03;3.35;;;24.40;61.00;;;;;;5033319;28;20029;-74
2021/07/12 12:25:57;;;;;;;6.45;3.80;;;24.40;60.90;;;;;;5031026;28;20052;-75
2021/07/12 12:28:39;;;;;;;5.88;3.55;;;24.40;60.90;;;;;;5034073;28;20060;-74
2021/07/12 12:31:08;;;;;;;5.80;3.50;;;24.40;60.90;;;;;;5018478;28;20033;-75
2021/07/12 12:33:37;;;;;;;7.22;3.65;;;24.40;61.00;;;;;;5032468;28;23013;-77
2021/07/12 12:36:08;;;;;;;5.55;3.30;;;24.40;61.00;;;;;;5033403;28;20022;-76
2021/07/12 12:38:34;;;;;;;6.93;3.88;;;24.40;60.80;;;;;;5057767;28;20021;-77
2021/07/12 12:41:07;;;;;;;5.65;3.33;;;24.50;60.80;;;;;;5043677;28;20021;-76
2021/07/12 12:43:34;;;;;;;6.20;3.28;;;24.50;60.70;;;;;;5060366;28;20041;-76
2021/07/12 12:46:02;;;;;;;6.32;3.45;;;24.50;60.80;;;;;;5042801;28;20081;-76
2021/07/12 12:48:35;;;;;;;7.75;3.72;;;24.50;60.90;;;;;;5036697;28;20036;-75
2021/07/12 12:51:20;;;;;;;7.18;3.63;;;24.50;60.90;;;;;;5043941;28;20032;-74
2021/07/12 12:53:56;;;;;;;6.05;3.65;;;24.50;60.80;;;;;;5033157;28;20124;-74
2021/07/12 12:56:21;;;;;;;4.88;3.38;;;24.50;60.80;;;;;;5032322;28;20053;-77
2021/07/12 12:58:56;;;;;;;5.38;3.72;;;24.50;60.80;;;;;;5014462;28;20061;-73